sensor_id;sensor_type;location;lat;lon;timestamp;temperature;humidity
31369;DHT22;18004;48.416;10.066;2023-11-25T00:51:45;1.70;99.90
31369;DHT22;18004;48.416;10.066;2023-11-25T00:54:14;1.70;99.90
31369;DHT22;18004;48.416;10.066;2023-11-25T00:56:57;1.70;99.90
31369;DHT22;18004;48.416;10.066;2023-11-25T00:59:44;1.70;99.90
31369;DHT22;18004;48.416;10.066;2023-11-25T01:02:53;1.70;99.90
31369;DHT22;18004;48.416;10.066;2023-11-25T01:06:16;1.80;99.90
31369;DHT22;18004;48.416;10.066;2023-11-25T01:28:47;1.40;99.90
31369;DHT22;18004;48.416;10.066;2023-11-25T01:31:47;1.40;99.90
31369;DHT22;18004;48.416;10.066;2023-11-25T02:04:07;1.50;99.90
31369;DHT22;18004;48.416;10.066;2023-11-25T02:37:24;0.90;99.90
31369;DHT22;18004;48.416;10.066;2023-11-25T03:17:40;0.60;99.90
31369;DHT22;18004;48.416;10.066;2023-11-25T03:27:36;0.70;99.90
31369;DHT22;18004;48.416;10.066;2023-11-25T03:34:23;0.70;99.90
31369;DHT22;18004;48.416;10.066;2023-11-25T04:35:23;0.70;99.90
31369;DHT22;18004;48.416;10.066;2023-11-25T04:58:28;0.50;99.90
31369;DHT22;18004;48.416;10.066;2023-11-25T05:11:45;0.40;99.90
31369;DHT22;18004;48.416;10.066;2023-11-25T05:15:35;0.40;99.90
31369;DHT22;18004;48.416;10.066;2023-11-25T05:18:30;0.40;99.90
31369;DHT22;18004;48.416;10.066;2023-11-25T05:20:57;0.40;99.90
31369;DHT22;18004;48.416;10.066;2023-11-25T05:23:22;0.40;99.90
31369;DHT22;18004;48.416;10.066;2023-11-25T05:25:48;0.50;99.90
31369;DHT22;18004;48.416;10.066;2023-11-25T05:28:14;0.50;99.90
31369;DHT22;18004;48.416;10.066;2023-11-25T05:30:40;0.50;99.90
31369;DHT22;18004;48.416;10.066;2023-11-25T05:33:06;0.50;99.90
31369;DHT22;18004;48.416;10.066;2023-11-25T05:35:33;0.60;99.90
31369;DHT22;18004;48.416;10.066;2023-11-25T05:37:59;0.60;99.90
31369;DHT22;18004;48.416;10.066;2023-11-25T05:40:25;0.60;99.90
31369;DHT22;18004;48.416;10.066;2023-11-25T05:42:58;0.60;99.90
31369;DHT22;18004;48.416;10.066;2023-11-25T05:45:26;0.60;99.90
31369;DHT22;18004;48.416;10.066;2023-11-25T05:47:53;0.70;99.90
31369;DHT22;18004;48.416;10.066;2023-11-25T05:50:19;0.70;99.90
31369;DHT22;18004;48.416;10.066;2023-11-25T05:52:46;0.80;99.90
31369;DHT22;18004;48.416;10.066;2023-11-25T05:55:12;0.80;99.90
31369;DHT22;18004;48.416;10.066;2023-11-25T05:57:38;0.80;99.90
31369;DHT22;18004;48.416;10.066;2023-11-25T06:00:04;0.80;99.90
31369;DHT22;18004;48.416;10.066;2023-11-25T06:02:30;0.90;99.90
31369;DHT22;18004;48.416;10.066;2023-11-25T06:05:06;0.90;99.90
31369;DHT22;18004;48.416;10.066;2023-11-25T06:07:35;0.70;99.90
31369;DHT22;18004;48.416;10.066;2023-11-25T06:10:13;0.60;99.90
31369;DHT22;18004;48.416;10.066;2023-11-25T06:12:43;0.70;99.90
31369;DHT22;18004;48.416;10.066;2023-11-25T06:15:09;0.70;99.90
31369;DHT22;18004;48.416;10.066;2023-11-25T06:17:37;0.70;99.90
31369;DHT22;18004;48.416;10.066;2023-11-25T06:20:06;0.60;99.90
31369;DHT22;18004;48.416;10.066;2023-11-25T06:22:55;0.50;99.90
31369;DHT22;18004;48.416;10.066;2023-11-25T06:25:24;0.50;99.90
31369;DHT22;18004;48.416;10.066;2023-11-25T06:28:24;0.40;99.90
31369;DHT22;18004;48.416;10.066;2023-11-25T06:45:16;0.30;99.90
31369;DHT22;18004;48.416;10.066;2023-11-25T06:59:21;0.20;99.90
31369;DHT22;18004;48.416;10.066;2023-11-25T07:09:29;0.30;99.90
31369;DHT22;18004;48.416;10.066;2023-11-25T07:18:42;0.30;99.90
31369;DHT22;18004;48.416;10.066;2023-11-25T07:21:19;0.30;99.90
31369;DHT22;18004;48.416;10.066;2023-11-25T07:23:45;0.30;99.90
31369;DHT22;18004;48.416;10.066;2023-11-25T07:26:14;0.30;99.90
31369;DHT22;18004;48.416;10.066;2023-11-25T07:28:42;0.30;99.90
31369;DHT22;18004;48.416;10.066;2023-11-25T07:31:08;0.40;99.90
31369;DHT22;18004;48.416;10.066;2023-11-25T07:33:40;0.40;99.90
31369;DHT22;18004;48.416;10.066;2023-11-25T08:00:45;0.60;99.90
31369;DHT22;18004;48.416;10.066;2023-11-25T08:14:38;0.70;99.90
31369;DHT22;18004;48.416;10.066;2023-11-25T08:17:35;0.70;99.90
31369;DHT22;18004;48.416;10.066;2023-11-25T08:20:32;0.70;99.90
31369;DHT22;18004;48.416;10.066;2023-11-25T08:23:59;0.70;99.90
31369;DHT22;18004;48.416;10.066;2023-11-25T08:26:52;0.70;99.90
31369;DHT22;18004;48.416;10.066;2023-11-25T08:29:37;0.80;99.90
31369;DHT22;18004;48.416;10.066;2023-11-25T08:36:09;0.80;99.90
31369;DHT22;18004;48.416;10.066;2023-11-25T08:38:56;0.90;99.90
31369;DHT22;18004;48.416;10.066;2023-11-25T08:41:47;0.90;99.90
31369;DHT22;18004;48.416;10.066;2023-11-25T08:44:13;1.00;99.90
31369;DHT22;18004;48.416;10.066;2023-11-25T08:46:42;1.00;99.90
31369;DHT22;18004;48.416;10.066;2023-11-25T08:49:14;1.00;99.90
31369;DHT22;18004;48.416;10.066;2023-11-25T08:51:43;1.00;99.90
31369;DHT22;18004;48.416;10.066;2023-11-25T08:54:15;1.00;99.90
31369;DHT22;18004;48.416;10.066;2023-11-25T08:56:44;1.00;99.90
31369;DHT22;18004;48.416;10.066;2023-11-25T08:59:17;1.00;99.90
31369;DHT22;18004;48.416;10.066;2023-11-25T09:01:46;1.00;99.90
31369;DHT22;18004;48.416;10.066;2023-11-25T09:04:13;1.10;99.90
31369;DHT22;18004;48.416;10.066;2023-11-25T09:06:45;1.20;99.90
31369;DHT22;18004;48.416;10.066;2023-11-25T09:09:13;1.20;99.90
31369;DHT22;18004;48.416;10.066;2023-11-25T09:11:43;1.30;99.90
31369;DHT22;18004;48.416;10.066;2023-11-25T09:14:09;1.40;99.90
31369;DHT22;18004;48.416;10.066;2023-11-25T09:16:35;1.50;99.90
31369;DHT22;18004;48.416;10.066;2023-11-25T09:19:00;1.50;99.90
31369;DHT22;18004;48.416;10.066;2023-11-25T09:21:28;1.60;99.90
31369;DHT22;18004;48.416;10.066;2023-11-25T09:23:54;1.60;99.90
31369;DHT22;18004;48.416;10.066;2023-11-25T09:26:26;1.70;99.90
31369;DHT22;18004;48.416;10.066;2023-11-25T09:28:52;1.80;99.90
31369;DHT22;18004;48.416;10.066;2023-11-25T09:31:20;1.90;99.90
31369;DHT22;18004;48.416;10.066;2023-11-25T09:33:46;1.90;99.90
31369;DHT22;18004;48.416;10.066;2023-11-25T09:36:12;1.90;99.90
31369;DHT22;18004;48.416;10.066;2023-11-25T09:38:38;1.90;99.90
31369;DHT22;18004;48.416;10.066;2023-11-25T09:41:04;1.90;99.90
31369;DHT22;18004;48.416;10.066;2023-11-25T09:43:40;1.90;99.90
31369;DHT22;18004;48.416;10.066;2023-11-25T09:46:08;1.90;99.90
31369;DHT22;18004;48.416;10.066;2023-11-25T09:48:35;1.90;99.90
31369;DHT22;18004;48.416;10.066;2023-11-25T09:51:03;2.00;99.90
31369;DHT22;18004;48.416;10.066;2023-11-25T09:53:33;2.00;99.90
31369;DHT22;18004;48.416;10.066;2023-11-25T09:56:05;2.00;99.90
31369;DHT22;18004;48.416;10.066;2023-11-25T09:58:36;2.00;99.90
31369;DHT22;18004;48.416;10.066;2023-11-25T10:01:03;2.00;99.90
31369;DHT22;18004;48.416;10.066;2023-11-25T10:03:40;2.10;99.90
31369;DHT22;18004;48.416;10.066;2023-11-25T10:06:11;2.00;99.90
31369;DHT22;18004;48.416;10.066;2023-11-25T10:20:03;2.10;99.90
31369;DHT22;18004;48.416;10.066;2023-11-25T10:22:30;2.10;99.90
31369;DHT22;18004;48.416;10.066;2023-11-25T10:25:10;2.20;99.90
31369;DHT22;18004;48.416;10.066;2023-11-25T10:27:37;2.30;99.90
31369;DHT22;18004;48.416;10.066;2023-11-25T10:30:07;2.30;99.90
31369;DHT22;18004;48.416;10.066;2023-11-25T10:32:34;2.30;99.90
31369;DHT22;18004;48.416;10.066;2023-11-25T10:35:00;2.40;99.90
31369;DHT22;18004;48.416;10.066;2023-11-25T10:37:27;2.50;99.90
31369;DHT22;18004;48.416;10.066;2023-11-25T10:39:53;2.50;99.90
31369;DHT22;18004;48.416;10.066;2023-11-25T10:42:19;2.50;99.90
31369;DHT22;18004;48.416;10.066;2023-11-25T10:44:46;2.40;99.90
31369;DHT22;18004;48.416;10.066;2023-11-25T10:47:32;2.40;99.90
31369;DHT22;18004;48.416;10.066;2023-11-25T10:49:59;2.50;99.90
31369;DHT22;18004;48.416;10.066;2023-11-25T10:52:32;2.50;99.90
31369;DHT22;18004;48.416;10.066;2023-11-25T10:54:58;2.70;99.90
31369;DHT22;18004;48.416;10.066;2023-11-25T10:57:26;2.80;99.90
31369;DHT22;18004;48.416;10.066;2023-11-25T10:59:56;2.90;99.90
31369;DHT22;18004;48.416;10.066;2023-11-25T11:02:29;2.80;99.90
31369;DHT22;18004;48.416;10.066;2023-11-25T11:05:08;2.70;99.90
31369;DHT22;18004;48.416;10.066;2023-11-25T11:07:41;2.70;99.90
31369;DHT22;18004;48.416;10.066;2023-11-25T11:10:11;2.80;99.90
31369;DHT22;18004;48.416;10.066;2023-11-25T11:12:57;2.90;99.90
31369;DHT22;18004;48.416;10.066;2023-11-25T11:15:38;2.80;99.90
31369;DHT22;18004;48.416;10.066;2023-11-25T11:18:18;2.90;99.90
31369;DHT22;18004;48.416;10.066;2023-11-25T11:20:45;2.90;99.90
31369;DHT22;18004;48.416;10.066;2023-11-25T11:23:13;2.90;99.90
31369;DHT22;18004;48.416;10.066;2023-11-25T11:29:05;2.90;99.90
31369;DHT22;18004;48.416;10.066;2023-11-25T11:34:26;3.00;99.90
31369;DHT22;18004;48.416;10.066;2023-11-25T11:36:53;3.00;99.90
31369;DHT22;18004;48.416;10.066;2023-11-25T11:39:44;3.10;99.90
31369;DHT22;18004;48.416;10.066;2023-11-25T11:42:24;3.30;99.90
31369;DHT22;18004;48.416;10.066;2023-11-25T11:45:16;3.30;99.90
31369;DHT22;18004;48.416;10.066;2023-11-25T11:47:57;3.30;99.90
31369;DHT22;18004;48.416;10.066;2023-11-25T11:50:28;3.40;99.90
31369;DHT22;18004;48.416;10.066;2023-11-25T11:55:51;3.50;99.90
31369;DHT22;18004;48.416;10.066;2023-11-25T11:58:22;3.50;99.90
31369;DHT22;18004;48.416;10.066;2023-11-25T12:03:32;3.50;99.90
31369;DHT22;18004;48.416;10.066;2023-11-25T12:05:59;3.50;99.90
31369;DHT22;18004;48.416;10.066;2023-11-25T12:08:26;3.50;99.90
31369;DHT22;18004;48.416;10.066;2023-11-25T12:10:53;3.50;99.90
31369;DHT22;18004;48.416;10.066;2023-11-25T12:13:35;3.40;99.90
31369;DHT22;18004;48.416;10.066;2023-11-25T12:16:02;3.40;99.90
31369;DHT22;18004;48.416;10.066;2023-11-25T12:18:30;3.30;99.90
31369;DHT22;18004;48.416;10.066;2023-11-25T12:20:57;3.30;99.90
31369;DHT22;18004;48.416;10.066;2023-11-25T12:23:27;3.30;99.90
31369;DHT22;18004;48.416;10.066;2023-11-25T12:25:54;3.30;99.90
31369;DHT22;18004;48.416;10.066;2023-11-25T12:28:21;3.30;99.90
31369;DHT22;18004;48.416;10.066;2023-11-25T12:30:48;3.30;99.90
31369;DHT22;18004;48.416;10.066;2023-11-25T12:33:14;3.30;99.90
31369;DHT22;18004;48.416;10.066;2023-11-25T12:35:41;3.30;99.90
31369;DHT22;18004;48.416;10.066;2023-11-25T12:38:11;3.30;99.90
31369;DHT22;18004;48.416;10.066;2023-11-25T12:40:39;3.40;99.90
31369;DHT22;18004;48.416;10.066;2023-11-25T12:43:06;3.40;99.90
31369;DHT22;18004;48.416;10.066;2023-11-25T12:45:40;3.40;99.90
31369;DHT22;18004;48.416;10.066;2023-11-25T12:48:13;3.40;99.90
31369;DHT22;18004;48.416;10.066;2023-11-25T12:51:03;3.30;99.90
31369;DHT22;18004;48.416;10.066;2023-11-25T12:53:54;3.40;99.90
31369;DHT22;18004;48.416;10.066;2023-11-25T12:56:21;3.30;99.90
31369;DHT22;18004;48.416;10.066;2023-11-25T12:58:47;3.20;99.90
31369;DHT22;18004;48.416;10.066;2023-11-25T13:01:13;3.20;99.90
31369;DHT22;18004;48.416;10.066;2023-11-25T13:03:39;3.10;99.90
31369;DHT22;18004;48.416;10.066;2023-11-25T13:06:06;3.20;99.90
31369;DHT22;18004;48.416;10.066;2023-11-25T13:08:36;3.10;99.90
31369;DHT22;18004;48.416;10.066;2023-11-25T13:11:07;3.10;99.90
31369;DHT22;18004;48.416;10.066;2023-11-25T13:13:35;3.00;99.90
31369;DHT22;18004;48.416;10.066;2023-11-25T13:16:02;3.00;99.90
31369;DHT22;18004;48.416;10.066;2023-11-25T13:18:30;2.90;99.90
31369;DHT22;18004;48.416;10.066;2023-11-25T13:21:05;2.80;99.90
31369;DHT22;18004;48.416;10.066;2023-11-25T13:23:35;2.60;99.90
31369;DHT22;18004;48.416;10.066;2023-11-25T13:26:01;2.60;99.90
31369;DHT22;18004;48.416;10.066;2023-11-25T13:28:27;2.40;99.90
31369;DHT22;18004;48.416;10.066;2023-11-25T13:30:53;2.40;99.90
31369;DHT22;18004;48.416;10.066;2023-11-25T13:33:22;2.40;99.90
31369;DHT22;18004;48.416;10.066;2023-11-25T13:35:48;2.30;99.90
31369;DHT22;18004;48.416;10.066;2023-11-25T13:38:14;2.30;99.90
31369;DHT22;18004;48.416;10.066;2023-11-25T13:40:41;2.40;99.90
31369;DHT22;18004;48.416;10.066;2023-11-25T13:43:12;2.40;99.90
31369;DHT22;18004;48.416;10.066;2023-11-25T13:45:46;2.40;99.90
31369;DHT22;18004;48.416;10.066;2023-11-25T13:48:15;2.40;99.90
31369;DHT22;18004;48.416;10.066;2023-11-25T13:50:54;2.20;99.90
31369;DHT22;18004;48.416;10.066;2023-11-25T13:53:20;2.10;99.90
31369;DHT22;18004;48.416;10.066;2023-11-25T13:55:46;2.00;99.90
31369;DHT22;18004;48.416;10.066;2023-11-25T13:58:14;2.00;99.90
31369;DHT22;18004;48.416;10.066;2023-11-25T14:00:44;2.10;99.90
31369;DHT22;18004;48.416;10.066;2023-11-25T14:03:10;2.20;99.90
31369;DHT22;18004;48.416;10.066;2023-11-25T14:05:40;2.20;99.90
31369;DHT22;18004;48.416;10.066;2023-11-25T14:08:11;2.20;99.90
31369;DHT22;18004;48.416;10.066;2023-11-25T14:10:40;2.30;99.90
31369;DHT22;18004;48.416;10.066;2023-11-25T14:13:10;2.30;99.90
31369;DHT22;18004;48.416;10.066;2023-11-25T14:15:36;2.30;99.90
31369;DHT22;18004;48.416;10.066;2023-11-25T14:18:02;2.30;99.90
31369;DHT22;18004;48.416;10.066;2023-11-25T14:20:30;2.40;99.90
31369;DHT22;18004;48.416;10.066;2023-11-25T14:22:55;2.20;99.90
31369;DHT22;18004;48.416;10.066;2023-11-25T14:25:25;2.20;99.90
31369;DHT22;18004;48.416;10.066;2023-11-25T14:27:50;2.30;99.90
31369;DHT22;18004;48.416;10.066;2023-11-25T14:30:17;2.20;99.90
31369;DHT22;18004;48.416;10.066;2023-11-25T14:32:51;2.20;99.90
31369;DHT22;18004;48.416;10.066;2023-11-25T14:35:17;2.10;99.90
31369;DHT22;18004;48.416;10.066;2023-11-25T14:37:43;2.10;99.90
31369;DHT22;18004;48.416;10.066;2023-11-25T14:40:10;2.10;99.90
31369;DHT22;18004;48.416;10.066;2023-11-25T14:42:42;2.10;99.90
31369;DHT22;18004;48.416;10.066;2023-11-25T14:45:09;2.10;99.90
31369;DHT22;18004;48.416;10.066;2023-11-25T14:47:36;2.10;99.90
31369;DHT22;18004;48.416;10.066;2023-11-25T14:50:03;2.20;99.90
31369;DHT22;18004;48.416;10.066;2023-11-25T14:52:29;2.20;99.90
31369;DHT22;18004;48.416;10.066;2023-11-25T14:54:56;2.20;99.90
31369;DHT22;18004;48.416;10.066;2023-11-25T14:57:31;2.20;99.90
31369;DHT22;18004;48.416;10.066;2023-11-25T15:03:15;2.10;99.90
31369;DHT22;18004;48.416;10.066;2023-11-25T15:05:41;2.10;99.90
31369;DHT22;18004;48.416;10.066;2023-11-25T15:08:17;2.10;99.90
31369;DHT22;18004;48.416;10.066;2023-11-25T15:10:43;2.10;99.90
31369;DHT22;18004;48.416;10.066;2023-11-25T15:13:10;2.10;99.90
31369;DHT22;18004;48.416;10.066;2023-11-25T15:15:36;2.10;99.90
31369;DHT22;18004;48.416;10.066;2023-11-25T15:18:02;2.10;99.90
31369;DHT22;18004;48.416;10.066;2023-11-25T15:20:28;2.10;99.90
31369;DHT22;18004;48.416;10.066;2023-11-25T15:22:57;2.00;99.90
31369;DHT22;18004;48.416;10.066;2023-11-25T15:25:32;2.00;99.90
31369;DHT22;18004;48.416;10.066;2023-11-25T15:28:13;2.00;99.90
31369;DHT22;18004;48.416;10.066;2023-11-25T15:31:09;2.00;99.90
31369;DHT22;18004;48.416;10.066;2023-11-25T15:33:45;1.90;99.90
31369;DHT22;18004;48.416;10.066;2023-11-25T15:36:17;1.90;99.90
31369;DHT22;18004;48.416;10.066;2023-11-25T15:38:44;1.90;99.90
31369;DHT22;18004;48.416;10.066;2023-11-25T15:41:10;1.90;99.90
31369;DHT22;18004;48.416;10.066;2023-11-25T15:43:39;1.90;99.90
31369;DHT22;18004;48.416;10.066;2023-11-25T15:46:08;1.90;99.90
31369;DHT22;18004;48.416;10.066;2023-11-25T15:48:36;1.90;99.90
31369;DHT22;18004;48.416;10.066;2023-11-25T15:51:04;1.80;99.90
31369;DHT22;18004;48.416;10.066;2023-11-25T15:53:32;1.80;99.90
31369;DHT22;18004;48.416;10.066;2023-11-25T15:55:58;1.80;99.90
31369;DHT22;18004;48.416;10.066;2023-11-25T15:58:26;1.80;99.90
31369;DHT22;18004;48.416;10.066;2023-11-25T16:00:54;1.70;99.90
31369;DHT22;18004;48.416;10.066;2023-11-25T16:03:26;1.70;99.90
31369;DHT22;18004;48.416;10.066;2023-11-25T16:05:58;1.70;99.90
31369;DHT22;18004;48.416;10.066;2023-11-25T16:08:27;1.70;99.90
31369;DHT22;18004;48.416;10.066;2023-11-25T16:10:56;1.70;99.90
31369;DHT22;18004;48.416;10.066;2023-11-25T16:13:27;1.70;99.90
31369;DHT22;18004;48.416;10.066;2023-11-25T16:15:53;1.70;99.90
31369;DHT22;18004;48.416;10.066;2023-11-25T16:18:19;1.70;99.90
31369;DHT22;18004;48.416;10.066;2023-11-25T16:20:48;1.70;99.90
31369;DHT22;18004;48.416;10.066;2023-11-25T16:23:14;1.70;99.90
31369;DHT22;18004;48.416;10.066;2023-11-25T16:25:40;1.60;99.90
31369;DHT22;18004;48.416;10.066;2023-11-25T16:28:05;1.60;99.90
31369;DHT22;18004;48.416;10.066;2023-11-25T16:30:33;1.70;99.90
31369;DHT22;18004;48.416;10.066;2023-11-25T16:33:05;1.70;99.90
31369;DHT22;18004;48.416;10.066;2023-11-25T16:35:40;1.70;99.90
31369;DHT22;18004;48.416;10.066;2023-11-25T16:38:18;1.70;99.90
31369;DHT22;18004;48.416;10.066;2023-11-25T16:40:54;1.70;99.90
31369;DHT22;18004;48.416;10.066;2023-11-25T16:43:24;1.70;99.90
31369;DHT22;18004;48.416;10.066;2023-11-25T16:45:54;1.70;99.90
31369;DHT22;18004;48.416;10.066;2023-11-25T16:48:25;1.70;99.90
31369;DHT22;18004;48.416;10.066;2023-11-25T16:50:51;1.70;99.90
31369;DHT22;18004;48.416;10.066;2023-11-25T16:53:37;1.70;99.90
31369;DHT22;18004;48.416;10.066;2023-11-25T16:56:18;1.70;99.90
31369;DHT22;18004;48.416;10.066;2023-11-25T16:58:57;1.70;99.90
31369;DHT22;18004;48.416;10.066;2023-11-25T17:01:32;1.70;99.90
31369;DHT22;18004;48.416;10.066;2023-11-25T17:03:58;1.70;99.90
31369;DHT22;18004;48.416;10.066;2023-11-25T17:06:33;1.60;99.90
31369;DHT22;18004;48.416;10.066;2023-11-25T17:09:06;1.70;99.90
31369;DHT22;18004;48.416;10.066;2023-11-25T17:11:31;1.60;99.90
31369;DHT22;18004;48.416;10.066;2023-11-25T17:13:57;1.60;99.90
31369;DHT22;18004;48.416;10.066;2023-11-25T17:16:24;1.60;99.90
31369;DHT22;18004;48.416;10.066;2023-11-25T17:18:58;1.60;99.90
31369;DHT22;18004;48.416;10.066;2023-11-25T17:21:25;1.60;99.90
31369;DHT22;18004;48.416;10.066;2023-11-25T17:23:50;1.60;99.90
31369;DHT22;18004;48.416;10.066;2023-11-25T17:26:16;1.60;99.90
31369;DHT22;18004;48.416;10.066;2023-11-25T17:28:45;1.60;99.90
31369;DHT22;18004;48.416;10.066;2023-11-25T17:31:17;1.50;99.90
31369;DHT22;18004;48.416;10.066;2023-11-25T17:33:46;1.60;99.90
31369;DHT22;18004;48.416;10.066;2023-11-25T17:36:12;1.60;99.90
31369;DHT22;18004;48.416;10.066;2023-11-25T17:38:43;1.50;99.90
31369;DHT22;18004;48.416;10.066;2023-11-25T17:41:14;1.50;99.90
31369;DHT22;18004;48.416;10.066;2023-11-25T17:43:44;1.50;99.90
31369;DHT22;18004;48.416;10.066;2023-11-25T17:46:15;1.50;99.90
31369;DHT22;18004;48.416;10.066;2023-11-25T17:49:04;1.50;99.90
31369;DHT22;18004;48.416;10.066;2023-11-25T17:51:30;1.50;99.90
31369;DHT22;18004;48.416;10.066;2023-11-25T17:53:55;1.50;99.90
31369;DHT22;18004;48.416;10.066;2023-11-25T17:56:23;1.50;99.90
31369;DHT22;18004;48.416;10.066;2023-11-25T17:58:54;1.50;99.90
31369;DHT22;18004;48.416;10.066;2023-11-25T18:01:20;1.50;99.90
31369;DHT22;18004;48.416;10.066;2023-11-25T18:03:46;1.50;99.90
31369;DHT22;18004;48.416;10.066;2023-11-25T18:06:12;1.50;99.90
31369;DHT22;18004;48.416;10.066;2023-11-25T18:08:47;1.50;99.90
31369;DHT22;18004;48.416;10.066;2023-11-25T18:11:32;1.50;99.90
31369;DHT22;18004;48.416;10.066;2023-11-25T18:14:06;1.50;99.90
31369;DHT22;18004;48.416;10.066;2023-11-25T18:16:39;1.50;99.90
31369;DHT22;18004;48.416;10.066;2023-11-25T18:19:11;1.50;99.90
31369;DHT22;18004;48.416;10.066;2023-11-25T18:22:03;1.50;99.90
31369;DHT22;18004;48.416;10.066;2023-11-25T18:24:40;1.50;99.90
31369;DHT22;18004;48.416;10.066;2023-11-25T18:27:26;1.40;99.90
31369;DHT22;18004;48.416;10.066;2023-11-25T18:29:55;1.50;99.90
31369;DHT22;18004;48.416;10.066;2023-11-25T18:32:21;1.40;99.90
31369;DHT22;18004;48.416;10.066;2023-11-25T18:34:52;1.40;99.90
31369;DHT22;18004;48.416;10.066;2023-11-25T18:37:38;1.40;99.90
31369;DHT22;18004;48.416;10.066;2023-11-25T18:40:11;1.40;99.90
31369;DHT22;18004;48.416;10.066;2023-11-25T18:42:45;1.50;99.90
31369;DHT22;18004;48.416;10.066;2023-11-25T18:45:26;1.40;99.90
31369;DHT22;18004;48.416;10.066;2023-11-25T18:48:10;1.40;99.90
31369;DHT22;18004;48.416;10.066;2023-11-25T18:50:44;1.40;99.90
31369;DHT22;18004;48.416;10.066;2023-11-25T18:53:13;1.40;99.90
31369;DHT22;18004;48.416;10.066;2023-11-25T18:55:48;1.40;99.90
31369;DHT22;18004;48.416;10.066;2023-11-25T18:58:33;1.40;99.90
31369;DHT22;18004;48.416;10.066;2023-11-25T19:01:02;1.30;99.90
31369;DHT22;18004;48.416;10.066;2023-11-25T19:03:41;1.40;99.90
31369;DHT22;18004;48.416;10.066;2023-11-25T19:06:24;1.40;99.90
31369;DHT22;18004;48.416;10.066;2023-11-25T19:09:08;1.30;99.90
31369;DHT22;18004;48.416;10.066;2023-11-25T19:11:41;1.30;99.90
31369;DHT22;18004;48.416;10.066;2023-11-25T19:14:24;1.30;99.90
31369;DHT22;18004;48.416;10.066;2023-11-25T19:17:37;1.30;99.90
31369;DHT22;18004;48.416;10.066;2023-11-25T19:20:13;1.40;99.90
31369;DHT22;18004;48.416;10.066;2023-11-25T19:22:45;1.30;99.90
31369;DHT22;18004;48.416;10.066;2023-11-25T19:25:17;1.30;99.90
31369;DHT22;18004;48.416;10.066;2023-11-25T19:27:43;1.20;99.90
31369;DHT22;18004;48.416;10.066;2023-11-25T19:30:50;1.10;99.90
31369;DHT22;18004;48.416;10.066;2023-11-25T19:33:28;1.20;99.90
31369;DHT22;18004;48.416;10.066;2023-11-25T19:36:11;1.20;99.90
31369;DHT22;18004;48.416;10.066;2023-11-25T19:38:49;1.20;99.90
31369;DHT22;18004;48.416;10.066;2023-11-25T19:41:59;1.20;99.90
31369;DHT22;18004;48.416;10.066;2023-11-25T19:44:41;1.10;99.90
31369;DHT22;18004;48.416;10.066;2023-11-25T19:47:52;1.20;99.90
31369;DHT22;18004;48.416;10.066;2023-11-25T19:50:41;1.20;99.90
31369;DHT22;18004;48.416;10.066;2023-11-25T19:53:13;1.20;99.90
31369;DHT22;18004;48.416;10.066;2023-11-25T19:55:59;1.20;99.90
31369;DHT22;18004;48.416;10.066;2023-11-25T19:58:30;1.20;99.90
31369;DHT22;18004;48.416;10.066;2023-11-25T20:00:56;1.20;99.90
31369;DHT22;18004;48.416;10.066;2023-11-25T20:03:22;1.20;99.90
31369;DHT22;18004;48.416;10.066;2023-11-25T20:06:07;1.20;99.90
31369;DHT22;18004;48.416;10.066;2023-11-25T20:08:42;1.30;99.90
31369;DHT22;18004;48.416;10.066;2023-11-25T20:11:11;1.30;99.90
31369;DHT22;18004;48.416;10.066;2023-11-25T20:13:50;1.30;99.90
31369;DHT22;18004;48.416;10.066;2023-11-25T20:16:16;1.30;99.90
31369;DHT22;18004;48.416;10.066;2023-11-25T20:18:43;1.30;99.90
31369;DHT22;18004;48.416;10.066;2023-11-25T20:21:10;1.40;99.90
31369;DHT22;18004;48.416;10.066;2023-11-25T20:23:36;1.40;99.90
31369;DHT22;18004;48.416;10.066;2023-11-25T20:26:03;1.40;99.90
31369;DHT22;18004;48.416;10.066;2023-11-25T20:28:29;1.40;99.90
31369;DHT22;18004;48.416;10.066;2023-11-25T20:30:56;1.40;99.90
31369;DHT22;18004;48.416;10.066;2023-11-25T20:33:28;1.40;99.90
31369;DHT22;18004;48.416;10.066;2023-11-25T20:36:04;1.40;99.90
31369;DHT22;18004;48.416;10.066;2023-11-25T20:38:31;1.40;99.90
31369;DHT22;18004;48.416;10.066;2023-11-25T20:40:57;1.40;99.90
31369;DHT22;18004;48.416;10.066;2023-11-25T20:43:23;1.50;99.90
31369;DHT22;18004;48.416;10.066;2023-11-25T20:45:49;1.50;99.90
31369;DHT22;18004;48.416;10.066;2023-11-25T20:48:15;1.50;99.90
31369;DHT22;18004;48.416;10.066;2023-11-25T20:50:47;1.50;99.90
31369;DHT22;18004;48.416;10.066;2023-11-25T20:53:17;1.50;99.90
31369;DHT22;18004;48.416;10.066;2023-11-25T20:55:46;1.50;99.90
31369;DHT22;18004;48.416;10.066;2023-11-25T20:58:17;1.50;99.90
31369;DHT22;18004;48.416;10.066;2023-11-25T21:00:43;1.50;99.90
31369;DHT22;18004;48.416;10.066;2023-11-25T21:03:12;1.50;99.90
31369;DHT22;18004;48.416;10.066;2023-11-25T21:05:38;1.50;99.90
31369;DHT22;18004;48.416;10.066;2023-11-25T21:08:04;1.50;99.90
31369;DHT22;18004;48.416;10.066;2023-11-25T21:10:30;1.50;99.90
31369;DHT22;18004;48.416;10.066;2023-11-25T21:12:57;1.50;99.90
31369;DHT22;18004;48.416;10.066;2023-11-25T21:15:24;1.50;99.90
31369;DHT22;18004;48.416;10.066;2023-11-25T21:17:50;1.50;99.90
31369;DHT22;18004;48.416;10.066;2023-11-25T21:20:16;1.60;99.90
31369;DHT22;18004;48.416;10.066;2023-11-25T21:22:42;1.60;99.90
31369;DHT22;18004;48.416;10.066;2023-11-25T21:25:10;1.60;99.90
31369;DHT22;18004;48.416;10.066;2023-11-25T21:30:31;1.60;99.90
31369;DHT22;18004;48.416;10.066;2023-11-25T21:33:04;1.60;99.90
31369;DHT22;18004;48.416;10.066;2023-11-25T21:36:00;1.60;99.90
31369;DHT22;18004;48.416;10.066;2023-11-25T21:38:44;1.60;99.90
31369;DHT22;18004;48.416;10.066;2023-11-25T21:41:21;1.60;99.90
31369;DHT22;18004;48.416;10.066;2023-11-25T21:47:01;1.60;99.90
31369;DHT22;18004;48.416;10.066;2023-11-25T21:49:39;1.60;99.90
31369;DHT22;18004;48.416;10.066;2023-11-25T21:52:05;1.60;99.90
31369;DHT22;18004;48.416;10.066;2023-11-25T21:54:31;1.70;99.90
31369;DHT22;18004;48.416;10.066;2023-11-25T21:56:59;1.70;99.90
31369;DHT22;18004;48.416;10.066;2023-11-25T21:59:25;1.70;99.90
31369;DHT22;18004;48.416;10.066;2023-11-25T22:01:51;1.70;99.90
31369;DHT22;18004;48.416;10.066;2023-11-25T22:04:17;1.70;99.90
31369;DHT22;18004;48.416;10.066;2023-11-25T22:06:43;1.70;99.90
31369;DHT22;18004;48.416;10.066;2023-11-25T22:09:09;1.70;99.90
31369;DHT22;18004;48.416;10.066;2023-11-25T22:11:40;1.70;99.90
31369;DHT22;18004;48.416;10.066;2023-11-25T22:14:06;1.60;99.90
31369;DHT22;18004;48.416;10.066;2023-11-25T22:16:32;1.70;99.90
31369;DHT22;18004;48.416;10.066;2023-11-25T22:18:57;1.70;99.90
31369;DHT22;18004;48.416;10.066;2023-11-25T22:21:24;1.70;99.90
31369;DHT22;18004;48.416;10.066;2023-11-25T22:23:50;1.70;99.90